默认 日期 大小 文件数 浏览量 最新下载 xml
2025 web磁力链接相关资源由用户搜索指令自动获取,结果来源于网络,本站不存储任何资料,亦不承担任何责任,请于24小时内删除,搜索到75074个磁力,显示前4000条数据,用时34ms。
    ... -x.mkv": 1243392841, "02. Таганрог .2025.WEB-DL 720p.Files-x.mkv ... ": 1210580337, "03. Таганрог .2025.WEB-DL 720p.Files-x.mkv ... ": 1219652994, "04. Таганрог .2025.WEB-DL 720p.Files-x.mkv ... ": 1211683269, "05. Таганрог .2025.WEB-DL 720p.Files-x.mkv ...
创建时间: 2025-05-09 11:30:58 大小:7.95 GB 文件数量:7 热度:1 最近下载:2025-05-09 20:57:01
    {"01. Нюрнбергская история.2025.WEB-DLRip.Files-x.avi": 621178880}
创建时间: 2025-05-09 11:52:30 大小:592.4 MB 文件数量:1 热度:1 最近下载:2025-05-09 20:59:01
    ... Na.sopkah.Manchzhurii.S01.E01.2025.WEB-DL.1080p.DenSBK.mkv": 2081098137 ... Na.sopkah.Manchzhurii.S01.E02.2025.WEB-DL.1080p.DenSBK.mkv": ... Na.sopkah.Manchzhurii.S01.E03.2025.WEB-DL.1080p.DenSBK.mkv": ... Na.sopkah.Manchzhurii.S01.E04.2025.WEB-DL.1080p.DenSBK.mkv": ...
创建时间: 2025-05-09 11:58:28 大小:7.89 GB 文件数量:4 热度:1 最近下载:2025-05-09 21:02:01
    {"01. На сопках Маньчжурии.2025.WEB-DLRip.Files-x.avi": ... , "02. На сопках Маньчжурии.2025.WEB-DLRip.Files-x.avi": 746362880 ... , "03. На сопках Маньчжурии.2025.WEB-DLRip.Files-x.avi": 699150336 ... , "04. На сопках Маньчжурии.2025.WEB-DLRip.Files-x.avi": 683266048}
创建时间: 2025-05-09 11:59:06 大小:2.63 GB 文件数量:4 热度:1 最近下载:2025-05-09 21:02:06
    {"Urok.S01.E01.2025.WEB-DLRip.(AVC).ExKinoRay.mkv": 957342371, "Urok.S01.E02.2025.WEB-DLRip.(AVC).ExKinoRay.mkv": 856544952, "Urok.S01.E03.2025.WEB-DLRip.(AVC).ExKinoRay.mkv": 988712894}
创建时间: 2025-05-09 12:14:06 大小:2.61 GB 文件数量:3 热度:1 最近下载:2025-05-09 21:03:02
    {".pad": {"181274": 181274, "524075": 524075, "524238": 524238}, "Importante Leeme!.vbs": 213, "Descargar Películas, Series y Animes...url": 50, "Sangre.de.Zeus.S03E05.2025.WEB-DL.1080p-Dual-Lat.mkv": 1189952486}
创建时间: 2025-05-09 12:27:44 大小:1.11 GB 文件数量:6 热度:1 最近下载:2025-05-09 21:04:02
    ... 3180126586, "Музыкальная.интуиция.S05.E02.WEB.1080p-ylnian.mkv": 2925915546, "Музыкальная ... .интуиция.S05.E03.WEB.1080p-ylnian.mkv": 3144788278, "Музыкальная ... .интуиция.S05.E04.WEB.1080p-ylnian.mkv": 3092635588, " ...
创建时间: 2025-05-09 12:30:53 大小:17.33 GB 文件数量:6 热度:1 最近下载:2025-05-09 21:04:01
    ... 7842055630, "Taganrog.S01.E02.2025.WEB-DL.2160p.SDR.ExKinoRay.mkv ... 7638465660, "Taganrog.S01.E03.2025.WEB-DL.2160p.SDR.ExKinoRay.mkv ... 7695501494, "Taganrog.S01.E04.2025.WEB-DL.2160p.SDR.ExKinoRay.mkv ... , "Taganrog.S01.E05.2025.WEB-DL.2160p.SDR.ExKinoRay.mkv ...
创建时间: 2025-05-09 12:47:42 大小:50.17 GB 文件数量:7 热度:3 最近下载:2025-08-06 02:46:02
    {"LEIA-ME.txt": 1423, "BLUDV.TO.url": 121, "GRUPO TELEGRAM.url": 130, "GRUPO WHATSAPP.url": 123, "TorrentsDosFilmes.TO.url": 129, "Rita Lee - Mania de Você 2025 WEB-DL 1080p x264 NACIONAL 5.1.mkv": 2164531412}
创建时间: 2025-05-09 13:26:08 大小:2.02 GB 文件数量:6 热度:4 最近下载:2025-09-18 19:15:07
    {".pad": {"514632": 514632, "524075": 524075, "524238": 524238}, "Importante Leeme!.vbs": 213, "Descargar Películas, Series y Animes...url": 50, "El.largo.rio.de.las.almas.S01E07.2025.WEB-DL.1080p-Dual-Lat.mkv": 1051731384}
创建时间: 2025-05-09 13:39:47 大小:1004.5 MB 文件数量:6 热度:1 最近下载:2025-05-09 21:10:03
    {"Day.of.Reckoning.2025.WEB-DLRip.ELEKTRI4KA.avi": 1570263040, "Day.of.Reckoning.2025.WEB-DLRip.ELEKTRI4KA.Full.srt": 95139}
创建时间: 2025-05-09 13:50:38 大小:1.46 GB 文件数量:2 热度:1 最近下载:2025-05-09 21:11:01
    {"01.Беремена в 45.Россия.S03E01.mp4": 1302915354, "02.Беремена в 45.Россия.S03E02.mp4": 1409853480, "03.Беремена в 45.Россия.S03E03.mp4": 1128219574, "04.Беремена в 45.Россия.S03E04.mp4": 1122928306, "05.Беремена в 45.Россия.S03E05.mp4": 1347297737, "06. ...
创建时间: 2025-05-09 14:21:43 大小:12.53 GB 文件数量:11 热度:1 最近下载:2025-05-09 21:14:02
    {"folder.jpg": 211557, "06. Farius - So High (Extended Mix).mp3": 14770845, "04. Maria Healy - Blush (Extended Mix).mp3": 17200239, "05. Ronski Speed - Vigo (Extended Mix).mp3": 19296304, "18. Lostly - Golden Teacher (Extended Mix).mp3": ...
创建时间: 2025-05-09 14:37:18 大小:331.76 MB 文件数量:21 热度:1 最近下载:2025-05-09 21:15:01
    ... 460903874, "Будиночок на щастя S06E02 (2025) WEB-DL 720p.mkv": 479994038, "Будиночок ... на щастя S06E03 (2025) WEB-DL 720p.mkv": 446759108, "Будиночок ... на щастя S06E04 (2025) WEB-DL 720p.mkv": 500875854, "Будиночок ...
创建时间: 2025-05-09 14:47:39 大小:7.17 GB 文件数量:16 热度:1 最近下载:2025-05-09 21:17:03
    {"Po.sledu.zverya.S01.E01.2025.WEB-DL.1080p.ExKinoRay.mkv": 1541505916 ... Po.sledu.zverya.S01.E02.2025.WEB-DL.1080p.ExKinoRay.mkv": ... Po.sledu.zverya.S01.E03.2025.WEB-DL.1080p.ExKinoRay.mkv": ... "Po.sledu.zverya.S01.E04.2025.WEB-DL.1080p.ExKinoRay.mkv": 1402459676 ...
创建时间: 2025-05-09 15:22:14 大小:5.46 GB 文件数量:4 热度:1 最近下载:2025-05-09 21:19:01
    ... .S02.2025.WEB-DLRip.Files-x.avi": 720232448, "02. Самогон .S02.2025.WEB-DLRip ... .Files-x.avi": 677363712, "03. Самогон .S02.2025.WEB-DLRip ... .avi": 695492608, "04. Самогон .S02.2025.WEB-DLRip.Files-x.avi": 677175296}
创建时间: 2025-05-09 16:03:36 大小:2.58 GB 文件数量:4 热度:1 最近下载:2025-05-09 21:24:04
    ... Ты научил меня прощать.2025.WEB-DL 1080p.Files-x.mkv ... Ты научил меня прощать.2025.WEB-DL 1080p.Files-x.mkv ... Ты научил меня прощать.2025.WEB-DL 1080p.Files-x. ... Ты научил меня прощать.2025.WEB-DL 1080p.Files-x. ... Ты научил меня прощать.2025.WEB-DL 1080p.Files-x. ...
创建时间: 2025-05-09 16:37:28 大小:10.62 GB 文件数量:8 热度:1 最近下载:2025-05-09 21:28:03
    {"LEIA-ME.txt": 1423, "BLUDV.TO.url": 121, "GRUPO TELEGRAM.url": 130, "GRUPO WHATSAPP.url": 123, "TorrentsDosFilmes.TO.url": 129, "Bala Perdida 3 2025 WEB-DL 1080p x264 DUAL 5.1.mkv": 2778891138}
创建时间: 2025-05-09 16:40:00 大小:2.59 GB 文件数量:6 热度:5 最近下载:2025-09-19 07:25:01
    ... история.2025.WEB-DLRip.Files-x.avi": 621178880, "02. Нюрнбергская история.2025.WEB-DLRip ... .Files-x.avi": 666222592, "03. Нюрнбергская история.2025.WEB- ... DLRip.Files-x.avi": 642488320, "04. Нюрнбергская история.2025.WEB- ...
创建时间: 2025-05-09 16:48:48 大小:2.38 GB 文件数量:4 热度:1 最近下载:2025-05-09 21:29:01
    ... .E01.2025.WEB-DLRip.(AVC).ExKinoRay.mkv": 782641577, "Gipnozis.S01.E02.2025.WEB-DLRip ... .(AVC).ExKinoRay.mkv": 782715403, "Gipnozis.S01.E03.2025.WEB-DLRip ... .(AVC).ExKinoRay.mkv": 791582872, "Gipnozis.S01.E04.2025.WEB-DLRip ...
创建时间: 2025-05-09 17:02:44 大小:4.3 GB 文件数量:6 热度:1 最近下载:2025-05-09 21:30:03